sensor_id;sensor_type;location;lat;lon;timestamp;P1;durP1;ratioP1;P2;durP2;ratioP2
60464;SDS011;46314;52.392;9.758;2022-11-04T00:00:41;5.82;;;4.75;;
60464;SDS011;46314;52.392;9.758;2022-11-04T00:03:08;9.38;;;4.55;;
60464;SDS011;46314;52.392;9.758;2022-11-04T00:05:35;4.50;;;4.03;;
60464;SDS011;46314;52.392;9.758;2022-11-04T00:08:03;5.68;;;4.03;;
60464;SDS011;46314;52.392;9.758;2022-11-04T00:10:30;7.50;;;3.75;;
60464;SDS011;46314;52.392;9.758;2022-11-04T00:12:56;7.03;;;4.43;;
60464;SDS011;46314;52.392;9.758;2022-11-04T00:15:23;6.72;;;4.93;;
60464;SDS011;46314;52.392;9.758;2022-11-04T00:17:49;6.40;;;4.55;;
60464;SDS011;46314;52.392;9.758;2022-11-04T00:20:15;7.22;;;5.55;;
60464;SDS011;46314;52.392;9.758;2022-11-04T00:22:46;7.60;;;4.47;;
60464;SDS011;46314;52.392;9.758;2022-11-04T00:25:15;6.18;;;4.20;;
60464;SDS011;46314;52.392;9.758;2022-11-04T00:27:41;8.27;;;5.07;;
60464;SDS011;46314;52.392;9.758;2022-11-04T00:30:08;7.40;;;4.63;;
60464;SDS011;46314;52.392;9.758;2022-11-04T00:32:36;6.55;;;4.47;;
60464;SDS011;46314;52.392;9.758;2022-11-04T00:35:02;8.35;;;4.80;;
60464;SDS011;46314;52.392;9.758;2022-11-04T00:37:29;6.78;;;4.82;;
60464;SDS011;46314;52.392;9.758;2022-11-04T00:39:56;7.55;;;5.10;;
60464;SDS011;46314;52.392;9.758;2022-11-04T00:42:24;5.55;;;4.22;;
60464;SDS011;46314;52.392;9.758;2022-11-04T00:44:50;7.38;;;4.68;;
60464;SDS011;46314;52.392;9.758;2022-11-04T00:47:17;5.93;;;4.60;;
60464;SDS011;46314;52.392;9.758;2022-11-04T00:49:43;6.40;;;4.53;;
60464;SDS011;46314;52.392;9.758;2022-11-04T00:52:09;5.85;;;4.15;;
60464;SDS011;46314;52.392;9.758;2022-11-04T00:54:36;7.78;;;4.45;;
60464;SDS011;46314;52.392;9.758;2022-11-04T00:57:02;10.23;;;5.18;;
60464;SDS011;46314;52.392;9.758;2022-11-04T00:59:30;8.82;;;5.32;;
60464;SDS011;46314;52.392;9.758;2022-11-04T01:01:56;5.93;;;4.47;;
60464;SDS011;46314;52.392;9.758;2022-11-04T01:04:23;5.00;;;4.13;;
60464;SDS011;46314;52.392;9.758;2022-11-04T01:06:49;8.55;;;5.10;;
60464;SDS011;46314;52.392;9.758;2022-11-04T01:09:16;7.63;;;4.95;;
60464;SDS011;46314;52.392;9.758;2022-11-04T01:11:43;11.68;;;5.65;;
60464;SDS011;46314;52.392;9.758;2022-11-04T01:14:09;8.85;;;5.45;;
60464;SDS011;46314;52.392;9.758;2022-11-04T01:16:37;8.07;;;5.45;;
60464;SDS011;46314;52.392;9.758;2022-11-04T01:19:04;5.15;;;4.65;;
60464;SDS011;46314;52.392;9.758;2022-11-04T01:21:31;9.38;;;6.00;;
60464;SDS011;46314;52.392;9.758;2022-11-04T01:23:58;9.63;;;6.43;;
60464;SDS011;46314;52.392;9.758;2022-11-04T01:26:25;9.40;;;6.32;;
60464;SDS011;46314;52.392;9.758;2022-11-04T01:28:53;9.70;;;6.53;;
60464;SDS011;46314;52.392;9.758;2022-11-04T01:31:21;10.77;;;7.57;;
60464;SDS011;46314;52.392;9.758;2022-11-04T01:33:50;9.70;;;5.80;;
60464;SDS011;46314;52.392;9.758;2022-11-04T01:36:18;11.98;;;7.40;;
60464;SDS011;46314;52.392;9.758;2022-11-04T01:38:45;7.75;;;6.00;;
60464;SDS011;46314;52.392;9.758;2022-11-04T01:41:15;8.63;;;5.97;;
60464;SDS011;46314;52.392;9.758;2022-11-04T01:43:44;10.07;;;5.40;;
60464;SDS011;46314;52.392;9.758;2022-11-04T01:46:17;7.40;;;6.32;;
60464;SDS011;46314;52.392;9.758;2022-11-04T01:48:52;10.00;;;5.70;;
60464;SDS011;46314;52.392;9.758;2022-11-04T01:51:21;8.00;;;5.95;;
60464;SDS011;46314;52.392;9.758;2022-11-04T01:53:48;6.53;;;5.82;;
60464;SDS011;46314;52.392;9.758;2022-11-04T01:56:17;6.53;;;5.93;;
60464;SDS011;46314;52.392;9.758;2022-11-04T01:58:45;6.57;;;5.60;;
60464;SDS011;46314;52.392;9.758;2022-11-04T02:01:14;7.57;;;5.55;;
60464;SDS011;46314;52.392;9.758;2022-11-04T02:03:42;6.72;;;5.35;;
60464;SDS011;46314;52.392;9.758;2022-11-04T02:06:15;7.47;;;5.35;;
60464;SDS011;46314;52.392;9.758;2022-11-04T02:08:44;9.25;;;5.50;;
60464;SDS011;46314;52.392;9.758;2022-11-04T02:11:11;9.45;;;5.60;;
60464;SDS011;46314;52.392;9.758;2022-11-04T02:13:37;6.63;;;5.28;;
60464;SDS011;46314;52.392;9.758;2022-11-04T02:16:07;7.13;;;5.15;;
60464;SDS011;46314;52.392;9.758;2022-11-04T02:18:45;8.77;;;5.60;;
60464;SDS011;46314;52.392;9.758;2022-11-04T02:21:29;5.65;;;4.97;;
60464;SDS011;46314;52.392;9.758;2022-11-04T02:24:26;8.88;;;5.63;;
60464;SDS011;46314;52.392;9.758;2022-11-04T02:30:04;9.00;;;5.00;;
60464;SDS011;46314;52.392;9.758;2022-11-04T02:32:41;6.72;;;4.30;;
60464;SDS011;46314;52.392;9.758;2022-11-04T02:35:19;5.45;;;4.72;;
60464;SDS011;46314;52.392;9.758;2022-11-04T02:37:53;5.20;;;3.92;;
60464;SDS011;46314;52.392;9.758;2022-11-04T02:40:29;5.07;;;4.25;;
60464;SDS011;46314;52.392;9.758;2022-11-04T02:43:06;7.30;;;4.47;;
60464;SDS011;46314;52.392;9.758;2022-11-04T02:45:40;5.85;;;4.65;;
60464;SDS011;46314;52.392;9.758;2022-11-04T02:48:11;5.45;;;4.47;;
60464;SDS011;46314;52.392;9.758;2022-11-04T02:50:47;5.30;;;4.80;;
60464;SDS011;46314;52.392;9.758;2022-11-04T02:53:17;5.95;;;5.00;;
60464;SDS011;46314;52.392;9.758;2022-11-04T02:55:49;5.78;;;4.70;;
60464;SDS011;46314;52.392;9.758;2022-11-04T02:58:20;5.00;;;4.40;;
60464;SDS011;46314;52.392;9.758;2022-11-04T03:00:50;6.35;;;4.82;;
60464;SDS011;46314;52.392;9.758;2022-11-04T03:03:20;5.65;;;4.75;;
60464;SDS011;46314;52.392;9.758;2022-11-04T03:05:50;5.25;;;3.97;;
60464;SDS011;46314;52.392;9.758;2022-11-04T03:08:20;7.15;;;4.55;;
60464;SDS011;46314;52.392;9.758;2022-11-04T03:10:51;6.68;;;4.15;;
60464;SDS011;46314;52.392;9.758;2022-11-04T03:13:23;6.63;;;4.07;;
60464;SDS011;46314;52.392;9.758;2022-11-04T03:15:56;4.80;;;4.20;;
60464;SDS011;46314;52.392;9.758;2022-11-04T03:18:29;3.55;;;3.22;;
60464;SDS011;46314;52.392;9.758;2022-11-04T03:21:02;5.00;;;3.55;;
60464;SDS011;46314;52.392;9.758;2022-11-04T03:23:31;4.28;;;3.50;;
60464;SDS011;46314;52.392;9.758;2022-11-04T03:26:01;3.42;;;2.55;;
60464;SDS011;46314;52.392;9.758;2022-11-04T03:28:36;2.13;;;1.92;;
60464;SDS011;46314;52.392;9.758;2022-11-04T03:31:10;2.80;;;2.47;;
60464;SDS011;46314;52.392;9.758;2022-11-04T03:33:44;2.85;;;1.77;;
60464;SDS011;46314;52.392;9.758;2022-11-04T03:36:13;2.83;;;1.83;;
60464;SDS011;46314;52.392;9.758;2022-11-04T03:38:40;2.55;;;1.73;;
60464;SDS011;46314;52.392;9.758;2022-11-04T03:41:08;2.05;;;1.85;;
60464;SDS011;46314;52.392;9.758;2022-11-04T03:43:40;3.37;;;1.63;;
60464;SDS011;46314;52.392;9.758;2022-11-04T03:46:07;1.67;;;1.05;;
60464;SDS011;46314;52.392;9.758;2022-11-04T03:48:35;2.20;;;1.63;;
60464;SDS011;46314;52.392;9.758;2022-11-04T03:51:01;1.70;;;1.13;;
60464;SDS011;46314;52.392;9.758;2022-11-04T03:53:28;2.00;;;1.35;;
60464;SDS011;46314;52.392;9.758;2022-11-04T03:56:00;1.65;;;1.10;;
60464;SDS011;46314;52.392;9.758;2022-11-04T03:58:40;2.83;;;1.40;;
60464;SDS011;46314;52.392;9.758;2022-11-04T04:01:16;3.17;;;1.20;;
60464;SDS011;46314;52.392;9.758;2022-11-04T04:03:54;4.22;;;1.55;;
60464;SDS011;46314;52.392;9.758;2022-11-04T04:06:25;2.03;;;1.58;;
60464;SDS011;46314;52.392;9.758;2022-11-04T04:08:57;2.20;;;1.90;;
60464;SDS011;46314;52.392;9.758;2022-11-04T04:11:33;1.63;;;1.50;;
60464;SDS011;46314;52.392;9.758;2022-11-04T04:14:04;2.28;;;2.08;;
60464;SDS011;46314;52.392;9.758;2022-11-04T04:16:38;2.63;;;2.42;;
60464;SDS011;46314;52.392;9.758;2022-11-04T04:19:10;3.10;;;2.80;;
60464;SDS011;46314;52.392;9.758;2022-11-04T04:21:40;3.60;;;3.30;;
60464;SDS011;46314;52.392;9.758;2022-11-04T04:24:11;3.88;;;3.45;;
60464;SDS011;46314;52.392;9.758;2022-11-04T04:26:40;3.50;;;3.20;;
60464;SDS011;46314;52.392;9.758;2022-11-04T04:29:07;4.07;;;3.60;;
60464;SDS011;46314;52.392;9.758;2022-11-04T04:31:36;4.07;;;3.40;;
60464;SDS011;46314;52.392;9.758;2022-11-04T04:34:04;3.55;;;3.25;;
60464;SDS011;46314;52.392;9.758;2022-11-04T04:36:33;3.83;;;3.53;;
60464;SDS011;46314;52.392;9.758;2022-11-04T04:39:07;4.72;;;4.07;;
60464;SDS011;46314;52.392;9.758;2022-11-04T04:41:35;6.03;;;5.15;;
60464;SDS011;46314;52.392;9.758;2022-11-04T04:44:02;4.88;;;4.47;;
60464;SDS011;46314;52.392;9.758;2022-11-04T04:46:29;4.55;;;4.15;;
60464;SDS011;46314;52.392;9.758;2022-11-04T04:49:02;4.45;;;4.07;;
60464;SDS011;46314;52.392;9.758;2022-11-04T04:51:29;5.03;;;4.63;;
60464;SDS011;46314;52.392;9.758;2022-11-04T04:53:57;5.22;;;4.82;;
60464;SDS011;46314;52.392;9.758;2022-11-04T04:56:24;5.68;;;5.10;;
60464;SDS011;46314;52.392;9.758;2022-11-04T04:58:50;7.10;;;5.53;;
60464;SDS011;46314;52.392;9.758;2022-11-04T05:01:17;5.40;;;4.97;;
60464;SDS011;46314;52.392;9.758;2022-11-04T05:03:43;6.15;;;5.55;;
60464;SDS011;46314;52.392;9.758;2022-11-04T05:06:10;5.13;;;4.63;;
60464;SDS011;46314;52.392;9.758;2022-11-04T05:08:37;6.00;;;5.50;;
60464;SDS011;46314;52.392;9.758;2022-11-04T05:11:04;6.50;;;5.68;;
60464;SDS011;46314;52.392;9.758;2022-11-04T05:13:31;6.13;;;5.40;;
60464;SDS011;46314;52.392;9.758;2022-11-04T05:16:01;5.90;;;5.40;;
60464;SDS011;46314;52.392;9.758;2022-11-04T05:18:29;5.75;;;5.30;;
60464;SDS011;46314;52.392;9.758;2022-11-04T05:20:56;5.80;;;5.30;;
60464;SDS011;46314;52.392;9.758;2022-11-04T05:23:22;5.85;;;5.35;;
60464;SDS011;46314;52.392;9.758;2022-11-04T05:25:49;6.88;;;6.07;;
60464;SDS011;46314;52.392;9.758;2022-11-04T05:28:16;6.68;;;6.07;;
60464;SDS011;46314;52.392;9.758;2022-11-04T05:30:43;6.15;;;5.65;;
60464;SDS011;46314;52.392;9.758;2022-11-04T05:33:09;7.03;;;6.32;;
60464;SDS011;46314;52.392;9.758;2022-11-04T05:35:36;6.00;;;5.45;;
60464;SDS011;46314;52.392;9.758;2022-11-04T05:38:03;7.45;;;6.75;;
60464;SDS011;46314;52.392;9.758;2022-11-04T05:40:29;6.30;;;5.80;;
60464;SDS011;46314;52.392;9.758;2022-11-04T05:42:56;6.68;;;6.15;;
60464;SDS011;46314;52.392;9.758;2022-11-04T05:45:24;6.97;;;6.38;;
60464;SDS011;46314;52.392;9.758;2022-11-04T05:47:55;6.78;;;6.05;;
60464;SDS011;46314;52.392;9.758;2022-11-04T05:50:23;7.38;;;6.78;;
60464;SDS011;46314;52.392;9.758;2022-11-04T05:52:49;7.80;;;7.13;;
60464;SDS011;46314;52.392;9.758;2022-11-04T05:55:16;7.18;;;6.38;;
60464;SDS011;46314;52.392;9.758;2022-11-04T05:57:42;7.90;;;7.13;;
60464;SDS011;46314;52.392;9.758;2022-11-04T06:00:09;7.40;;;6.80;;
60464;SDS011;46314;52.392;9.758;2022-11-04T06:02:38;8.25;;;7.43;;
60464;SDS011;46314;52.392;9.758;2022-11-04T06:05:05;7.25;;;6.65;;
60464;SDS011;46314;52.392;9.758;2022-11-04T06:07:32;8.18;;;7.38;;
60464;SDS011;46314;52.392;9.758;2022-11-04T06:09:59;8.35;;;7.65;;
60464;SDS011;46314;52.392;9.758;2022-11-04T06:12:25;9.10;;;8.27;;
60464;SDS011;46314;52.392;9.758;2022-11-04T06:14:52;11.05;;;8.35;;
60464;SDS011;46314;52.392;9.758;2022-11-04T06:17:19;9.35;;;7.88;;
60464;SDS011;46314;52.392;9.758;2022-11-04T06:19:48;8.75;;;7.95;;
60464;SDS011;46314;52.392;9.758;2022-11-04T06:22:15;9.75;;;8.75;;
60464;SDS011;46314;52.392;9.758;2022-11-04T06:24:43;8.65;;;7.85;;
60464;SDS011;46314;52.392;9.758;2022-11-04T06:27:10;8.40;;;7.60;;
60464;SDS011;46314;52.392;9.758;2022-11-04T06:29:37;8.20;;;7.30;;
60464;SDS011;46314;52.392;9.758;2022-11-04T06:32:04;17.27;;;8.40;;
60464;SDS011;46314;52.392;9.758;2022-11-04T06:34:30;8.50;;;7.57;;
60464;SDS011;46314;52.392;9.758;2022-11-04T06:36:58;8.85;;;8.05;;
60464;SDS011;46314;52.392;9.758;2022-11-04T06:39:24;8.70;;;7.85;;
60464;SDS011;46314;52.392;9.758;2022-11-04T06:41:51;8.77;;;7.88;;
60464;SDS011;46314;52.392;9.758;2022-11-04T06:44:20;8.88;;;7.90;;
60464;SDS011;46314;52.392;9.758;2022-11-04T06:46:47;8.48;;;7.60;;
60464;SDS011;46314;52.392;9.758;2022-11-04T06:49:13;9.32;;;8.32;;
60464;SDS011;46314;52.392;9.758;2022-11-04T06:51:41;8.00;;;7.22;;
60464;SDS011;46314;52.392;9.758;2022-11-04T06:54:09;28.08;;;9.20;;
60464;SDS011;46314;52.392;9.758;2022-11-04T06:56:36;8.80;;;6.57;;
60464;SDS011;46314;52.392;9.758;2022-11-04T06:59:03;7.10;;;6.40;;
60464;SDS011;46314;52.392;9.758;2022-11-04T07:01:31;7.97;;;6.80;;
60464;SDS011;46314;52.392;9.758;2022-11-04T07:04:00;8.85;;;6.70;;
60464;SDS011;46314;52.392;9.758;2022-11-04T07:06:27;9.13;;;7.18;;
60464;SDS011;46314;52.392;9.758;2022-11-04T07:08:55;9.40;;;6.70;;
60464;SDS011;46314;52.392;9.758;2022-11-04T07:11:24;7.97;;;7.28;;
60464;SDS011;46314;52.392;9.758;2022-11-04T07:13:51;9.45;;;7.32;;
60464;SDS011;46314;52.392;9.758;2022-11-04T07:16:18;9.27;;;7.65;;
60464;SDS011;46314;52.392;9.758;2022-11-04T07:18:44;7.90;;;6.75;;
60464;SDS011;46314;52.392;9.758;2022-11-04T07:21:11;8.85;;;7.25;;
60464;SDS011;46314;52.392;9.758;2022-11-04T07:23:38;7.80;;;6.50;;
60464;SDS011;46314;52.392;9.758;2022-11-04T07:26:05;7.30;;;6.60;;
60464;SDS011;46314;52.392;9.758;2022-11-04T07:28:33;8.43;;;6.63;;
60464;SDS011;46314;52.392;9.758;2022-11-04T07:31:00;8.45;;;7.13;;
60464;SDS011;46314;52.392;9.758;2022-11-04T07:33:28;7.05;;;6.38;;
60464;SDS011;46314;52.392;9.758;2022-11-04T07:35:55;8.23;;;6.68;;
60464;SDS011;46314;52.392;9.758;2022-11-04T07:38:23;6.75;;;6.05;;
60464;SDS011;46314;52.392;9.758;2022-11-04T07:40:49;6.30;;;5.55;;
60464;SDS011;46314;52.392;9.758;2022-11-04T07:43:16;7.78;;;5.45;;
60464;SDS011;46314;52.392;9.758;2022-11-04T07:45:44;6.90;;;5.53;;
60464;SDS011;46314;52.392;9.758;2022-11-04T07:48:10;6.13;;;5.22;;
60464;SDS011;46314;52.392;9.758;2022-11-04T07:50:37;6.57;;;5.00;;
60464;SDS011;46314;52.392;9.758;2022-11-04T07:53:04;5.85;;;5.30;;
60464;SDS011;46314;52.392;9.758;2022-11-04T07:55:31;8.70;;;6.13;;
60464;SDS011;46314;52.392;9.758;2022-11-04T07:57:58;6.47;;;5.38;;
60464;SDS011;46314;52.392;9.758;2022-11-04T08:00:24;6.30;;;4.70;;
60464;SDS011;46314;52.392;9.758;2022-11-04T08:02:53;9.52;;;5.22;;
60464;SDS011;46314;52.392;9.758;2022-11-04T08:05:19;5.50;;;5.00;;
60464;SDS011;46314;52.392;9.758;2022-11-04T08:07:45;5.90;;;5.05;;
60464;SDS011;46314;52.392;9.758;2022-11-04T08:10:12;5.95;;;5.35;;
60464;SDS011;46314;52.392;9.758;2022-11-04T08:12:38;5.97;;;4.97;;
60464;SDS011;46314;52.392;9.758;2022-11-04T08:15:05;5.35;;;4.38;;
60464;SDS011;46314;52.392;9.758;2022-11-04T08:17:33;6.95;;;5.43;;
60464;SDS011;46314;52.392;9.758;2022-11-04T08:20:00;7.22;;;5.43;;
60464;SDS011;46314;52.392;9.758;2022-11-04T08:22:27;8.55;;;4.65;;
60464;SDS011;46314;52.392;9.758;2022-11-04T08:24:58;6.40;;;5.00;;
60464;SDS011;46314;52.392;9.758;2022-11-04T08:27:24;6.20;;;4.85;;
60464;SDS011;46314;52.392;9.758;2022-11-04T08:29:51;6.90;;;5.35;;
60464;SDS011;46314;52.392;9.758;2022-11-04T08:32:17;6.15;;;5.00;;
60464;SDS011;46314;52.392;9.758;2022-11-04T08:34:44;7.50;;;4.90;;
60464;SDS011;46314;52.392;9.758;2022-11-04T08:37:13;7.82;;;4.75;;
60464;SDS011;46314;52.392;9.758;2022-11-04T08:39:40;6.22;;;4.43;;
60464;SDS011;46314;52.392;9.758;2022-11-04T08:42:06;7.63;;;4.30;;
60464;SDS011;46314;52.392;9.758;2022-11-04T08:44:33;6.45;;;5.07;;
60464;SDS011;46314;52.392;9.758;2022-11-04T08:47:00;6.70;;;4.70;;
60464;SDS011;46314;52.392;9.758;2022-11-04T08:49:29;7.55;;;4.32;;
60464;SDS011;46314;52.392;9.758;2022-11-04T08:51:55;7.40;;;5.10;;
60464;SDS011;46314;52.392;9.758;2022-11-04T08:54:23;6.40;;;4.82;;
60464;SDS011;46314;52.392;9.758;2022-11-04T08:56:50;12.85;;;5.38;;
60464;SDS011;46314;52.392;9.758;2022-11-04T08:59:17;8.27;;;4.07;;
60464;SDS011;46314;52.392;9.758;2022-11-04T09:01:43;6.60;;;4.45;;
60464;SDS011;46314;52.392;9.758;2022-11-04T09:04:10;7.20;;;4.88;;
60464;SDS011;46314;52.392;9.758;2022-11-04T09:06:39;6.95;;;4.47;;
60464;SDS011;46314;52.392;9.758;2022-11-04T09:09:07;7.47;;;4.70;;
60464;SDS011;46314;52.392;9.758;2022-11-04T09:11:38;6.28;;;4.68;;
60464;SDS011;46314;52.392;9.758;2022-11-04T09:14:06;6.53;;;4.57;;
60464;SDS011;46314;52.392;9.758;2022-11-04T09:16:34;10.23;;;5.57;;
60464;SDS011;46314;52.392;9.758;2022-11-04T09:19:02;5.80;;;5.00;;
60464;SDS011;46314;52.392;9.758;2022-11-04T09:21:28;7.68;;;5.20;;
60464;SDS011;46314;52.392;9.758;2022-11-04T09:23:55;6.78;;;5.45;;
60464;SDS011;46314;52.392;9.758;2022-11-04T09:26:22;5.90;;;4.60;;
60464;SDS011;46314;52.392;9.758;2022-11-04T09:28:53;6.50;;;4.85;;
60464;SDS011;46314;52.392;9.758;2022-11-04T09:31:20;7.07;;;4.38;;
60464;SDS011;46314;52.392;9.758;2022-11-04T09:33:46;6.70;;;5.43;;
60464;SDS011;46314;52.392;9.758;2022-11-04T09:36:13;9.00;;;5.85;;
60464;SDS011;46314;52.392;9.758;2022-11-04T09:38:40;6.25;;;5.30;;
60464;SDS011;46314;52.392;9.758;2022-11-04T09:41:08;7.00;;;4.95;;
60464;SDS011;46314;52.392;9.758;2022-11-04T09:43:46;6.85;;;4.88;;
60464;SDS011;46314;52.392;9.758;2022-11-04T09:46:19;5.33;;;4.83;;
60464;SDS011;46314;52.392;9.758;2022-11-04T09:48:46;6.05;;;4.97;;
60464;SDS011;46314;52.392;9.758;2022-11-04T09:51:16;6.65;;;4.85;;
60464;SDS011;46314;52.392;9.758;2022-11-04T09:54:07;6.72;;;4.38;;
60464;SDS011;46314;52.392;9.758;2022-11-04T09:56:38;7.03;;;4.80;;
60464;SDS011;46314;52.392;9.758;2022-11-04T09:59:08;9.45;;;4.85;;
60464;SDS011;46314;52.392;9.758;2022-11-04T10:01:42;9.27;;;5.60;;
60464;SDS011;46314;52.392;9.758;2022-11-04T10:04:18;10.07;;;5.05;;
60464;SDS011;46314;52.392;9.758;2022-11-04T10:06:57;8.85;;;5.05;;
60464;SDS011;46314;52.392;9.758;2022-11-04T10:09:36;5.90;;;4.32;;
60464;SDS011;46314;52.392;9.758;2022-11-04T10:12:17;4.55;;;4.05;;
60464;SDS011;46314;52.392;9.758;2022-11-04T10:15:00;5.65;;;4.38;;
60464;SDS011;46314;52.392;9.758;2022-11-04T10:17:46;7.97;;;3.85;;
60464;SDS011;46314;52.392;9.758;2022-11-04T10:20:32;5.30;;;3.90;;
60464;SDS011;46314;52.392;9.758;2022-11-04T10:23:13;8.90;;;4.13;;
60464;SDS011;46314;52.392;9.758;2022-11-04T10:25:47;11.18;;;4.70;;
60464;SDS011;46314;52.392;9.758;2022-11-04T10:28:17;8.55;;;5.18;;
60464;SDS011;46314;52.392;9.758;2022-11-04T10:30:46;5.35;;;4.55;;
60464;SDS011;46314;52.392;9.758;2022-11-04T10:33:18;8.18;;;5.00;;
60464;SDS011;46314;52.392;9.758;2022-11-04T10:35:52;9.10;;;4.38;;
60464;SDS011;46314;52.392;9.758;2022-11-04T10:38:23;9.52;;;4.95;;
60464;SDS011;46314;52.392;9.758;2022-11-04T10:40:58;6.90;;;4.60;;
60464;SDS011;46314;52.392;9.758;2022-11-04T10:43:33;5.05;;;4.35;;
60464;SDS011;46314;52.392;9.758;2022-11-04T10:46:06;7.43;;;4.53;;
60464;SDS011;46314;52.392;9.758;2022-11-04T10:48:42;5.35;;;4.15;;
60464;SDS011;46314;52.392;9.758;2022-11-04T10:51:14;5.55;;;4.28;;
60464;SDS011;46314;52.392;9.758;2022-11-04T10:53:42;10.85;;;4.88;;
60464;SDS011;46314;52.392;9.758;2022-11-04T10:56:10;5.03;;;4.20;;
60464;SDS011;46314;52.392;9.758;2022-11-04T10:58:43;4.63;;;3.83;;
60464;SDS011;46314;52.392;9.758;2022-11-04T11:01:21;8.27;;;4.57;;
60464;SDS011;46314;52.392;9.758;2022-11-04T11:03:51;6.28;;;3.78;;
60464;SDS011;46314;52.392;9.758;2022-11-04T11:06:20;6.35;;;3.88;;
60464;SDS011;46314;52.392;9.758;2022-11-04T11:08:50;5.95;;;3.20;;
60464;SDS011;46314;52.392;9.758;2022-11-04T11:11:33;4.93;;;3.30;;
60464;SDS011;46314;52.392;9.758;2022-11-04T11:14:02;6.95;;;3.20;;
60464;SDS011;46314;52.392;9.758;2022-11-04T11:16:29;4.50;;;3.60;;
60464;SDS011;46314;52.392;9.758;2022-11-04T11:19:11;4.97;;;3.63;;
60464;SDS011;46314;52.392;9.758;2022-11-04T11:21:41;5.70;;;3.13;;
60464;SDS011;46314;52.392;9.758;2022-11-04T11:24:12;5.00;;;3.53;;
60464;SDS011;46314;52.392;9.758;2022-11-04T11:26:39;5.38;;;3.25;;
60464;SDS011;46314;52.392;9.758;2022-11-04T11:29:07;4.78;;;3.97;;
60464;SDS011;46314;52.392;9.758;2022-11-04T11:31:37;7.75;;;3.95;;
60464;SDS011;46314;52.392;9.758;2022-11-04T11:34:05;7.60;;;3.55;;
60464;SDS011;46314;52.392;9.758;2022-11-04T11:36:40;4.55;;;3.53;;
60464;SDS011;46314;52.392;9.758;2022-11-04T11:39:13;5.35;;;3.92;;
60464;SDS011;46314;52.392;9.758;2022-11-04T11:41:48;5.80;;;3.30;;
60464;SDS011;46314;52.392;9.758;2022-11-04T11:44:21;5.80;;;3.53;;
60464;SDS011;46314;52.392;9.758;2022-11-04T11:46:52;5.10;;;3.35;;
60464;SDS011;46314;52.392;9.758;2022-11-04T11:49:23;5.18;;;3.22;;
60464;SDS011;46314;52.392;9.758;2022-11-04T11:51:51;5.50;;;3.55;;
60464;SDS011;46314;52.392;9.758;2022-11-04T11:54:19;4.95;;;3.55;;
60464;SDS011;46314;52.392;9.758;2022-11-04T11:56:52;3.20;;;2.65;;
60464;SDS011;46314;52.392;9.758;2022-11-04T11:59:41;5.75;;;3.58;;
60464;SDS011;46314;52.392;9.758;2022-11-04T12:02:33;4.40;;;4.00;;
60464;SDS011;46314;52.392;9.758;2022-11-04T12:05:08;6.00;;;3.95;;
60464;SDS011;46314;52.392;9.758;2022-11-04T12:07:58;5.70;;;3.63;;
60464;SDS011;46314;52.392;9.758;2022-11-04T12:10:53;8.65;;;4.32;;
60464;SDS011;46314;52.392;9.758;2022-11-04T12:13:25;5.18;;;3.40;;
60464;SDS011;46314;52.392;9.758;2022-11-04T12:18:55;9.10;;;4.20;;
60464;SDS011;46314;52.392;9.758;2022-11-04T12:21:31;5.22;;;3.90;;
60464;SDS011;46314;52.392;9.758;2022-11-04T12:24:02;4.80;;;3.88;;
60464;SDS011;46314;52.392;9.758;2022-11-04T12:26:45;4.93;;;3.83;;
60464;SDS011;46314;52.392;9.758;2022-11-04T12:29:28;5.55;;;3.78;;
60464;SDS011;46314;52.392;9.758;2022-11-04T12:32:06;7.65;;;4.05;;
60464;SDS011;46314;52.392;9.758;2022-11-04T12:34:44;7.85;;;4.75;;
60464;SDS011;46314;52.392;9.758;2022-11-04T12:37:25;4.25;;;3.85;;
60464;SDS011;46314;52.392;9.758;2022-11-04T12:40:02;8.63;;;3.90;;
60464;SDS011;46314;52.392;9.758;2022-11-04T12:42:40;6.15;;;3.38;;
60464;SDS011;46314;52.392;9.758;2022-11-04T12:45:19;12.80;;;4.15;;
60464;SDS011;46314;52.392;9.758;2022-11-04T12:47:57;6.50;;;3.72;;
60464;SDS011;46314;52.392;9.758;2022-11-04T12:50:33;9.52;;;4.45;;
60464;SDS011;46314;52.392;9.758;2022-11-04T12:53:24;4.85;;;3.83;;
60464;SDS011;46314;52.392;9.758;2022-11-04T12:56:05;6.50;;;3.60;;
60464;SDS011;46314;52.392;9.758;2022-11-04T12:58:38;7.47;;;3.75;;
60464;SDS011;46314;52.392;9.758;2022-11-04T13:01:14;5.25;;;3.38;;
60464;SDS011;46314;52.392;9.758;2022-11-04T13:03:47;5.68;;;3.28;;
60464;SDS011;46314;52.392;9.758;2022-11-04T13:06:19;4.25;;;2.97;;
60464;SDS011;46314;52.392;9.758;2022-11-04T13:08:53;3.15;;;2.85;;
60464;SDS011;46314;52.392;9.758;2022-11-04T13:11:25;6.18;;;3.10;;
60464;SDS011;46314;52.392;9.758;2022-11-04T13:13:57;6.45;;;3.40;;
60464;SDS011;46314;52.392;9.758;2022-11-04T13:16:29;3.03;;;2.73;;
60464;SDS011;46314;52.392;9.758;2022-11-04T13:18:59;4.65;;;3.17;;
60464;SDS011;46314;52.392;9.758;2022-11-04T13:21:27;4.75;;;3.47;;
60464;SDS011;46314;52.392;9.758;2022-11-04T13:24:02;9.25;;;3.35;;
60464;SDS011;46314;52.392;9.758;2022-11-04T13:26:31;5.07;;;3.83;;
60464;SDS011;46314;52.392;9.758;2022-11-04T13:28:58;4.47;;;3.05;;
60464;SDS011;46314;52.392;9.758;2022-11-04T13:31:36;7.57;;;3.15;;
60464;SDS011;46314;52.392;9.758;2022-11-04T13:34:15;6.65;;;2.97;;
60464;SDS011;46314;52.392;9.758;2022-11-04T13:36:51;5.80;;;3.85;;
60464;SDS011;46314;52.392;9.758;2022-11-04T13:39:27;3.97;;;2.60;;
60464;SDS011;46314;52.392;9.758;2022-11-04T13:42:10;4.93;;;3.65;;
60464;SDS011;46314;52.392;9.758;2022-11-04T13:44:48;4.95;;;3.28;;
60464;SDS011;46314;52.392;9.758;2022-11-04T13:47:18;6.10;;;3.08;;
60464;SDS011;46314;52.392;9.758;2022-11-04T13:49:48;5.70;;;3.53;;
60464;SDS011;46314;52.392;9.758;2022-11-04T13:52:16;5.50;;;3.67;;
60464;SDS011;46314;52.392;9.758;2022-11-04T13:54:45;4.10;;;3.70;;
60464;SDS011;46314;52.392;9.758;2022-11-04T13:57:18;4.25;;;3.13;;
60464;SDS011;46314;52.392;9.758;2022-11-04T14:02:37;5.63;;;3.25;;
60464;SDS011;46314;52.392;9.758;2022-11-04T14:08:16;5.30;;;3.70;;
60464;SDS011;46314;52.392;9.758;2022-11-04T14:10:45;7.30;;;4.00;;
60464;SDS011;46314;52.392;9.758;2022-11-04T14:13:43;6.15;;;4.18;;
60464;SDS011;46314;52.392;9.758;2022-11-04T14:16:36;5.45;;;3.60;;
60464;SDS011;46314;52.392;9.758;2022-11-04T14:22:18;5.45;;;2.95;;
60464;SDS011;46314;52.392;9.758;2022-11-04T14:24:52;5.03;;;3.45;;
60464;SDS011;46314;52.392;9.758;2022-11-04T14:27:23;4.25;;;2.72;;
60464;SDS011;46314;52.392;9.758;2022-11-04T14:29:53;7.40;;;3.30;;
60464;SDS011;46314;52.392;9.758;2022-11-04T14:32:21;5.03;;;2.83;;
60464;SDS011;46314;52.392;9.758;2022-11-04T14:34:55;4.70;;;2.88;;
60464;SDS011;46314;52.392;9.758;2022-11-04T14:37:25;3.78;;;2.85;;
60464;SDS011;46314;52.392;9.758;2022-11-04T14:39:56;4.45;;;2.83;;
60464;SDS011;46314;52.392;9.758;2022-11-04T14:42:45;6.20;;;3.13;;
60464;SDS011;46314;52.392;9.758;2022-11-04T14:45:15;5.18;;;2.72;;
60464;SDS011;46314;52.392;9.758;2022-11-04T14:47:45;5.10;;;3.20;;
60464;SDS011;46314;52.392;9.758;2022-11-04T14:50:16;7.53;;;3.42;;
60464;SDS011;46314;52.392;9.758;2022-11-04T14:52:45;6.55;;;3.50;;
60464;SDS011;46314;52.392;9.758;2022-11-04T14:55:16;4.32;;;3.47;;
60464;SDS011;46314;52.392;9.758;2022-11-04T14:57:46;5.65;;;3.50;;
60464;SDS011;46314;52.392;9.758;2022-11-04T15:00:17;6.97;;;3.72;;
60464;SDS011;46314;52.392;9.758;2022-11-04T15:02:48;8.80;;;4.05;;
60464;SDS011;46314;52.392;9.758;2022-11-04T15:05:26;8.40;;;4.05;;
60464;SDS011;46314;52.392;9.758;2022-11-04T15:07:54;4.88;;;4.07;;
60464;SDS011;46314;52.392;9.758;2022-11-04T15:10:21;6.57;;;4.18;;
60464;SDS011;46314;52.392;9.758;2022-11-04T15:12:51;7.00;;;4.43;;
60464;SDS011;46314;52.392;9.758;2022-11-04T15:15:26;6.13;;;4.18;;
60464;SDS011;46314;52.392;9.758;2022-11-04T15:18:02;6.45;;;4.38;;
60464;SDS011;46314;52.392;9.758;2022-11-04T15:20:32;5.65;;;3.90;;
60464;SDS011;46314;52.392;9.758;2022-11-04T15:23:02;8.98;;;4.82;;